Time;durP1;ratioP1;P1;durP2;ratioP2;P2;SDS_P1;SDS_P2;PMS_P1;PMS_P2;Temp;Humidity;BMP_temperature;BMP_pressure;BME280_temperature;BME280_humidity;BME280_pressure;Samples;Min_cycle;Max_cycle;Signal;HPM_P1;HPM_P2
2022/11/09 00:03:54;;;;;;;33.75;24.88;;;;;;;;;;10265634;28;20069;-64
2022/11/09 00:08:52;;;;;;;36.67;26.48;;;;;;;;;;10248493;28;20499;-65
2022/11/09 00:13:52;;;;;;;36.85;26.30;;;;;;;;;;10265228;28;20068;-67
2022/11/09 00:18:52;;;;;;;32.10;25.15;;;;;;;;;;10268257;28;20041;-65
2022/11/09 00:23:50;;;;;;;32.92;24.40;;;;;;;;;;10274266;28;20137;-65
2022/11/09 00:28:49;;;;;;;34.40;23.77;;;;;;;;;;10270577;28;20072;-64
2022/11/09 00:33:49;;;;;;;38.17;25.75;;;;;;;;;;10253977;28;20077;-64
2022/11/09 00:38:48;;;;;;;35.95;25.40;;;;;;;;;;10265584;28;20045;-64
2022/11/09 00:43:47;;;;;;;31.25;24.58;;;;;;;;;;10247895;28;20081;-65
2022/11/09 00:48:45;;;;;;;34.70;24.83;;;;;;;;;;10251520;28;20087;-65
2022/11/09 00:53:47;;;;;;;31.60;21.98;;;;;;;;;;10252113;28;20069;-64
2022/11/09 00:58:45;;;;;;;29.83;21.90;;;;;;;;;;10249444;28;20065;-64
2022/11/09 01:03:44;;;;;;;32.85;23.15;;;;;;;;;;10250956;28;20072;-64
2022/11/09 01:08:42;;;;;;;37.55;24.80;;;;;;;;;;10249293;28;20083;-66
2022/11/09 01:13:42;;;;;;;33.65;24.80;;;;;;;;;;10247821;28;20872;-65
2022/11/09 01:18:40;;;;;;;28.60;24.27;;;;;;;;;;10250244;28;20508;-65
2022/11/09 01:23:39;;;;;;;34.45;24.35;;;;;;;;;;10250562;28;20083;-64
2022/11/09 01:28:37;;;;;;;31.63;25.42;;;;;;;;;;10270195;28;20095;-63
2022/11/09 01:33:38;;;;;;;34.90;26.50;;;;;;;;;;10271350;28;20087;-64
2022/11/09 01:38:37;;;;;;;32.50;22.88;;;;;;;;;;10268558;28;20051;-64
2022/11/09 01:43:35;;;;;;;56.13;37.97;;;;;;;;;;10269605;28;20076;-65
2022/11/09 01:48:40;;;;;;;33.35;24.92;;;;;;;;;;10265708;28;20080;-64
2022/11/09 01:53:40;;;;;;;46.35;28.77;;;;;;;;;;10269709;28;20080;-64
2022/11/09 01:58:41;;;;;;;29.52;20.25;;;;;;;;;;10268407;28;20051;-65
2022/11/09 02:03:42;;;;;;;23.77;17.17;;;;;;;;;;10252896;28;20077;-65
2022/11/09 02:08:41;;;;;;;26.83;18.55;;;;;;;;;;10245567;28;20050;-65
2022/11/09 02:13:46;;;;;;;25.65;21.02;;;;;;;;;;10245864;28;20403;-65
2022/11/09 02:18:50;;;;;;;31.15;25.80;;;;;;;;;;10232399;28;20045;-65
2022/11/09 02:23:50;;;;;;;31.95;23.80;;;;;;;;;;10266025;28;20060;-65
2022/11/09 02:28:50;;;;;;;33.88;23.85;;;;;;;;;;10282096;28;20088;-64
2022/11/09 02:33:55;;;;;;;31.00;24.90;;;;;;;;;;10266600;28;20053;-65
2022/11/09 02:38:55;;;;;;;23.83;20.05;;;;;;;;;;10268161;28;20073;-64
2022/11/09 02:43:54;;;;;;;26.98;20.13;;;;;;;;;;10268049;28;20053;-64
2022/11/09 02:48:53;;;;;;;32.35;21.25;;;;;;;;;;10249354;28;20095;-65
2022/11/09 02:53:51;;;;;;;28.45;21.83;;;;;;;;;;10238238;28;20077;-65
2022/11/09 02:58:53;;;;;;;32.55;20.42;;;;;;;;;;10273660;28;20053;-64
2022/11/09 03:03:52;;;;;;;26.48;21.70;;;;;;;;;;10259898;28;20480;-65
2022/11/09 03:08:50;;;;;;;31.05;22.17;;;;;;;;;;10275273;28;20073;-64
2022/11/09 03:13:49;;;;;;;26.80;21.33;;;;;;;;;;10287752;28;20056;-65
2022/11/09 03:18:49;;;;;;;46.45;31.92;;;;;;;;;;10272801;28;20045;-66
2022/11/09 03:23:47;;;;;;;33.95;24.85;;;;;;;;;;10271941;28;20575;-65
2022/11/09 03:28:46;;;;;;;24.50;19.70;;;;;;;;;;10270059;28;20391;-65
2022/11/09 03:33:44;;;;;;;21.80;16.75;;;;;;;;;;10265805;28;20052;-66
2022/11/09 03:38:44;;;;;;;20.60;17.10;;;;;;;;;;10251369;28;20453;-66
2022/11/09 03:43:42;;;;;;;23.52;18.05;;;;;;;;;;10264592;28;20164;-65
2022/11/09 03:48:41;;;;;;;22.77;18.25;;;;;;;;;;10274527;28;20084;-65
2022/11/09 03:53:39;;;;;;;26.85;20.67;;;;;;;;;;10257345;28;20041;-65
2022/11/09 03:58:38;;;;;;;38.28;23.80;;;;;;;;;;10237838;28;20072;-64
2022/11/09 04:03:37;;;;;;;29.75;23.05;;;;;;;;;;10274548;28;20057;-67
2022/11/09 04:08:35;;;;;;;30.10;23.05;;;;;;;;;;10256076;28;20499;-65
2022/11/09 04:13:33;;;;;;;31.63;24.05;;;;;;;;;;10238303;28;20072;-65
2022/11/09 04:18:33;;;;;;;36.15;23.63;;;;;;;;;;10254713;28;20069;-65
2022/11/09 04:23:31;;;;;;;29.98;23.77;;;;;;;;;;10264639;28;20469;-66
2022/11/09 04:28:29;;;;;;;32.38;23.00;;;;;;;;;;10271281;28;20075;-65
2022/11/09 04:33:28;;;;;;;27.00;22.55;;;;;;;;;;10272719;28;20076;-64
2022/11/09 04:38:27;;;;;;;28.50;22.40;;;;;;;;;;10273939;28;20501;-64
2022/11/09 04:43:26;;;;;;;31.17;22.50;;;;;;;;;;10263048;28;20065;-64
2022/11/09 04:48:24;;;;;;;31.38;25.08;;;;;;;;;;10271075;28;20072;-65
2022/11/09 04:53:22;;;;;;;35.33;24.02;;;;;;;;;;10272757;28;20144;-64
2022/11/09 04:58:22;;;;;;;42.13;25.13;;;;;;;;;;10270114;28;20060;-65
2022/11/09 05:03:22;;;;;;;30.27;23.50;;;;;;;;;;10270162;28;20041;-65
2022/11/09 05:08:20;;;;;;;38.90;26.25;;;;;;;;;;10264958;28;20084;-64
2022/11/09 05:13:19;;;;;;;46.08;28.20;;;;;;;;;;10273174;28;20045;-65
2022/11/09 05:18:19;;;;;;;35.70;26.83;;;;;;;;;;10263161;28;20072;-65
2022/11/09 05:28:33;;;;;;;40.97;27.83;;;;;;;;;;10259081;28;20504;-65
2022/11/09 05:33:32;;;;;;;37.05;27.55;;;;;;;;;;10259684;28;20060;-67
2022/11/09 05:38:31;;;;;;;43.72;29.23;;;;;;;;;;10259846;28;20080;-66
2022/11/09 05:43:29;;;;;;;44.10;28.35;;;;;;;;;;10257801;28;20509;-66
2022/11/09 05:48:27;;;;;;;39.78;27.85;;;;;;;;;;10263320;28;20103;-67
2022/11/09 05:53:26;;;;;;;41.38;30.40;;;;;;;;;;10266518;28;20533;-65
2022/11/09 05:58:25;;;;;;;41.45;31.13;;;;;;;;;;10269202;28;20056;-65
2022/11/09 06:03:23;;;;;;;56.60;35.90;;;;;;;;;;10264002;28;20533;-65
2022/11/09 06:08:21;;;;;;;52.53;34.40;;;;;;;;;;10271002;28;20072;-66
2022/11/09 06:13:21;;;;;;;52.42;33.58;;;;;;;;;;10261737;28;20094;-65
2022/11/09 06:18:19;;;;;;;52.47;34.58;;;;;;;;;;10271308;28;20064;-64
2022/11/09 06:23:18;;;;;;;68.65;48.05;;;;;;;;;;10271091;28;20080;-65
2022/11/09 06:28:16;;;;;;;55.47;36.65;;;;;;;;;;10276204;28;20065;-65
2022/11/09 06:33:16;;;;;;;46.78;34.55;;;;;;;;;;10278929;28;20065;-65
2022/11/09 06:38:15;;;;;;;47.55;33.45;;;;;;;;;;10276994;28;20562;-65
2022/11/09 06:43:13;;;;;;;54.10;36.83;;;;;;;;;;10278727;28;20080;-64
2022/11/09 06:48:11;;;;;;;62.85;40.65;;;;;;;;;;10277333;28;20059;-64
2022/11/09 06:53:12;;;;;;;59.10;43.60;;;;;;;;;;10278428;28;20076;-65
2022/11/09 06:58:13;;;;;;;71.47;46.35;;;;;;;;;;10271094;28;20068;-65
2022/11/09 07:03:13;;;;;;;67.47;48.30;;;;;;;;;;10275760;28;20064;-65
2022/11/09 07:08:13;;;;;;;73.55;54.97;;;;;;;;;;10275559;28;20056;-65
2022/11/09 07:13:11;;;;;;;86.05;54.00;;;;;;;;;;10270692;28;20076;-65
2022/11/09 07:18:11;;;;;;;72.80;50.33;;;;;;;;;;10269724;28;20497;-64
2022/11/09 07:23:09;;;;;;;72.43;51.65;;;;;;;;;;10276969;28;20061;-65
2022/11/09 07:28:10;;;;;;;72.63;54.58;;;;;;;;;;10271883;28;20084;-64
2022/11/09 07:33:12;;;;;;;75.72;55.10;;;;;;;;;;10275545;28;20084;-65
2022/11/09 07:38:10;;;;;;;102.15;70.28;;;;;;;;;;10270223;28;20072;-65
2022/11/09 07:43:11;;;;;;;57.97;45.97;;;;;;;;;;10270350;28;20077;-66
2022/11/09 07:48:11;;;;;;;53.08;40.42;;;;;;;;;;10256392;28;20338;-67
2022/11/09 07:53:10;;;;;;;71.60;51.63;;;;;;;;;;10267623;28;20460;-65
2022/11/09 07:58:11;;;;;;;57.25;37.70;;;;;;;;;;10269819;28;20311;-66
2022/11/09 08:03:10;;;;;;;62.20;37.53;;;;;;;;;;10267884;28;20053;-66
2022/11/09 08:08:10;;;;;;;48.55;35.42;;;;;;;;;;10266408;28;20068;-67
2022/11/09 08:13:10;;;;;;;55.10;32.50;;;;;;;;;;10266848;28;20072;-67
2022/11/09 08:18:10;;;;;;;45.15;33.55;;;;;;;;;;10268407;28;20467;-65
2022/11/09 08:23:11;;;;;;;64.88;33.67;;;;;;;;;;10253206;28;20056;-66
2022/11/09 08:28:09;;;;;;;49.60;32.78;;;;;;;;;;10240693;28;20083;-65
2022/11/09 08:33:14;;;;;;;40.38;32.60;;;;;;;;;;10249668;28;20069;-66
2022/11/09 08:38:12;;;;;;;52.30;33.65;;;;;;;;;;10269338;28;20029;-66
2022/11/09 08:43:11;;;;;;;54.55;33.88;;;;;;;;;;10270982;28;20091;-66
2022/11/09 08:48:10;;;;;;;53.78;34.00;;;;;;;;;;10270505;28;20489;-67
2022/11/09 08:53:09;;;;;;;71.65;48.65;;;;;;;;;;10271510;28;20190;-65
2022/11/09 08:58:08;;;;;;;63.15;42.15;;;;;;;;;;10271077;28;20079;-64
2022/11/09 09:03:06;;;;;;;45.58;34.05;;;;;;;;;;10260566;28;20112;-65
2022/11/09 09:08:05;;;;;;;47.83;35.28;;;;;;;;;;10267388;28;20037;-65
2022/11/09 09:13:05;;;;;;;43.13;32.50;;;;;;;;;;10254938;28;20064;-65
2022/11/09 09:18:03;;;;;;;45.50;30.40;;;;;;;;;;10235062;28;20061;-65
2022/11/09 09:23:02;;;;;;;45.20;32.63;;;;;;;;;;10262889;28;20072;-65
2022/11/09 09:28:01;;;;;;;40.33;31.98;;;;;;;;;;10262837;28;20061;-65
2022/11/09 09:33:01;;;;;;;48.53;31.88;;;;;;;;;;10269566;28;20077;-65
2022/11/09 09:37:59;;;;;;;45.25;33.38;;;;;;;;;;10269382;28;20061;-66
2022/11/09 09:42:57;;;;;;;48.72;31.52;;;;;;;;;;10269575;28;20598;-65
2022/11/09 09:47:58;;;;;;;48.97;30.65;;;;;;;;;;10254153;28;20470;-65
2022/11/09 09:53:00;;;;;;;45.90;31.60;;;;;;;;;;10241161;28;20076;-66
2022/11/09 09:58:20;;;;;;;48.13;33.22;;;;;;;;;;10248384;28;20087;-66
2022/11/09 10:03:20;;;;;;;58.97;31.25;;;;;;;;;;10274356;28;20061;-66
2022/11/09 10:08:24;;;;;;;56.17;30.42;;;;;;;;;;10260710;28;20076;-66
2022/11/09 10:13:28;;;;;;;44.83;29.67;;;;;;;;;;10245103;28;20498;-66
2022/11/09 10:18:34;;;;;;;43.97;30.13;;;;;;;;;;10273927;28;20068;-65
2022/11/09 10:23:43;;;;;;;40.58;28.58;;;;;;;;;;10261492;28;20052;-66
2022/11/09 10:28:42;;;;;;;40.92;27.70;;;;;;;;;;10244309;28;20041;-66
2022/11/09 10:34:03;;;;;;;37.78;26.23;;;;;;;;;;10255185;28;20088;-66
2022/11/09 10:39:03;;;;;;;43.05;27.17;;;;;;;;;;10243874;28;20052;-66
2022/11/09 10:44:20;;;;;;;43.83;27.08;;;;;;;;;;10281983;28;20064;-66
2022/11/09 10:49:37;;;;;;;34.40;26.00;;;;;;;;;;10279299;28;20552;-67
2022/11/09 10:55:15;;;;;;;33.65;25.73;;;;;;;;;;10264345;28;20054;-66
2022/11/09 11:00:32;;;;;;;32.22;24.63;;;;;;;;;;10249203;28;20042;-67
2022/11/09 11:05:57;;;;;;;40.67;26.15;;;;;;;;;;10246826;28;20459;-67
2022/11/09 11:11:25;;;;;;;26.95;19.23;;;;;;;;;;10244714;28;20073;-66
2022/11/09 11:16:51;;;;;;;31.08;23.17;;;;;;;;;;10244610;28;20085;-66
2022/11/09 11:22:17;;;;;;;21.85;18.98;;;;;;;;;;10257262;28;20479;-66
2022/11/09 11:27:37;;;;;;;32.65;20.38;;;;;;;;;;10241366;28;20073;-67
2022/11/09 11:32:54;;;;;;;25.83;19.20;;;;;;;;;;10241032;28;20088;-66
2022/11/09 11:38:19;;;;;;;29.38;18.70;;;;;;;;;;10274353;28;20049;-66
2022/11/09 11:43:44;;;;;;;26.33;19.90;;;;;;;;;;10275175;28;20561;-67
2022/11/09 11:49:19;;;;;;;30.60;17.70;;;;;;;;;;10272542;28;20073;-66
2022/11/09 11:54:42;;;;;;;24.30;17.80;;;;;;;;;;10254595;28;20081;-66
2022/11/09 12:00:08;;;;;;;24.20;17.73;;;;;;;;;;10257337;28;20423;-66
2022/11/09 12:05:35;;;;;;;27.58;18.33;;;;;;;;;;10277005;28;20053;-66
2022/11/09 12:10:55;;;;;;;25.50;18.05;;;;;;;;;;10266181;28;20076;-66
2022/11/09 12:16:18;;;;;;;28.42;19.80;;;;;;;;;;10280581;28;20495;-67
2022/11/09 12:21:38;;;;;;;26.27;17.77;;;;;;;;;;10275984;28;20057;-67
2022/11/09 12:26:59;;;;;;;22.52;18.13;;;;;;;;;;10276321;28;20073;-66
2022/11/09 12:32:40;;;;;;;24.52;19.35;;;;;;;;;;10246362;28;20089;-66
2022/11/09 12:38:01;;;;;;;25.27;21.38;;;;;;;;;;10263033;28;20491;-67
2022/11/09 12:43:19;;;;;;;22.42;18.85;;;;;;;;;;10269907;28;20135;-66
2022/11/09 12:48:38;;;;;;;32.90;21.88;;;;;;;;;;10271849;28;20084;-66
2022/11/09 12:53:55;;;;;;;31.08;20.17;;;;;;;;;;10249090;28;20475;-66
2022/11/09 12:59:19;;;;;;;33.85;21.58;;;;;;;;;;10264760;28;20073;-65
2022/11/09 13:04:37;;;;;;;25.50;20.05;;;;;;;;;;10272993;28;20080;-66
2022/11/09 13:09:55;;;;;;;36.65;21.85;;;;;;;;;;10272977;28;20497;-65
2022/11/09 13:15:25;;;;;;;33.78;20.20;;;;;;;;;;10274344;28;20080;-66
2022/11/09 13:20:47;;;;;;;32.30;22.33;;;;;;;;;;10263098;28;20072;-65
2022/11/09 13:26:21;;;;;;;38.13;22.42;;;;;;;;;;10255935;28;20076;-66
2022/11/09 13:31:56;;;;;;;28.35;19.48;;;;;;;;;;10252573;28;20072;-66
2022/11/09 13:37:32;;;;;;;29.20;21.13;;;;;;;;;;10253089;28;20072;-66
2022/11/09 13:42:55;;;;;;;32.63;23.48;;;;;;;;;;10248597;28;20073;-66
2022/11/09 13:48:24;;;;;;;31.27;24.07;;;;;;;;;;10264207;28;20041;-66
2022/11/09 13:53:52;;;;;;;29.73;24.52;;;;;;;;;;10267660;28;20808;-65
2022/11/09 13:59:15;;;;;;;33.92;21.48;;;;;;;;;;10275030;28;20072;-66
2022/11/09 14:04:36;;;;;;;28.45;21.05;;;;;;;;;;10277684;28;20488;-66
2022/11/09 14:10:00;;;;;;;34.20;23.92;;;;;;;;;;10260843;28;20037;-66
2022/11/09 14:15:22;;;;;;;30.60;21.00;;;;;;;;;;10277597;28;20072;-67
2022/11/09 14:20:41;;;;;;;27.02;18.98;;;;;;;;;;10277514;28;20053;-67
2022/11/09 14:26:05;;;;;;;27.08;17.58;;;;;;;;;;10265410;28;20072;-67
2022/11/09 14:31:25;;;;;;;31.63;21.70;;;;;;;;;;10274192;28;20494;-68
2022/11/09 14:36:42;;;;;;;37.35;22.13;;;;;;;;;;10274244;28;20474;-67
2022/11/09 14:41:59;;;;;;;31.73;22.65;;;;;;;;;;10273703;28;20065;-67
2022/11/09 14:47:18;;;;;;;38.53;25.73;;;;;;;;;;10273320;28;20072;-67
2022/11/09 14:52:35;;;;;;;33.40;25.70;;;;;;;;;;10279635;28;20180;-68
2022/11/09 14:57:53;;;;;;;34.80;25.65;;;;;;;;;;10273096;28;20046;-66
2022/11/09 15:03:24;;;;;;;33.17;22.83;;;;;;;;;;10276879;28;20156;-67
2022/11/09 15:08:47;;;;;;;34.20;26.92;;;;;;;;;;10276953;28;20053;-66
2022/11/09 15:14:14;;;;;;;46.35;30.73;;;;;;;;;;10283769;28;20080;-67
2022/11/09 15:19:34;;;;;;;72.85;56.35;;;;;;;;;;10286006;28;20045;-66
2022/11/09 15:24:51;;;;;;;56.85;37.95;;;;;;;;;;10279473;28;20048;-66
2022/11/09 15:30:22;;;;;;;39.58;29.17;;;;;;;;;;10283995;28;20064;-66
2022/11/09 15:35:49;;;;;;;35.95;22.25;;;;;;;;;;10282254;28;20081;-66
2022/11/09 15:41:10;;;;;;;36.33;22.75;;;;;;;;;;10271647;28;20394;-66
2022/11/09 15:46:28;;;;;;;34.05;23.38;;;;;;;;;;10268954;28;20068;-67
2022/11/09 15:51:46;;;;;;;40.88;26.23;;;;;;;;;;10274985;28;20073;-67
2022/11/09 15:57:04;;;;;;;45.15;37.78;;;;;;;;;;10276246;28;20518;-66
2022/11/09 16:02:22;;;;;;;38.17;27.55;;;;;;;;;;10269671;28;20088;-65
2022/11/09 16:07:48;;;;;;;34.25;25.58;;;;;;;;;;10270067;28;20076;-66
2022/11/09 16:13:05;;;;;;;;;;;;;;;;;;10264008;28;20120;-66
2022/11/09 16:18:22;;;;;;;36.92;26.15;;;;;;;;;;10265676;28;19956;-67
2022/11/09 16:23:43;;;;;;;32.90;27.27;;;;;;;;;;10250224;28;20084;-66
2022/11/09 16:28:59;;;;;;;37.65;30.60;;;;;;;;;;10247715;28;20053;-66
2022/11/09 16:34:16;;;;;;;44.53;33.30;;;;;;;;;;10266220;28;20518;-66
2022/11/09 16:39:35;;;;;;;69.10;50.15;;;;;;;;;;10283174;28;20053;-67
2022/11/09 16:44:52;;;;;;;52.35;37.80;;;;;;;;;;10271243;28;20069;-67
2022/11/09 16:50:09;;;;;;;41.75;32.53;;;;;;;;;;10276638;28;20041;-67
2022/11/09 16:55:27;;;;;;;46.20;33.70;;;;;;;;;;10257459;28;20080;-66
2022/11/09 17:00:45;;;;;;;39.55;29.42;;;;;;;;;;10259446;28;20521;-66
2022/11/09 17:06:22;;;;;;;43.95;31.08;;;;;;;;;;10277437;28;20065;-66
2022/11/09 17:11:40;;;;;;;46.60;34.72;;;;;;;;;;10275121;28;20072;-65
2022/11/09 17:16:59;;;;;;;40.45;32.30;;;;;;;;;;10274031;28;20080;-65
2022/11/09 17:22:17;;;;;;;37.53;31.35;;;;;;;;;;10254499;28;20045;-66
2022/11/09 17:27:36;;;;;;;42.50;30.98;;;;;;;;;;10246969;28;20073;-67
2022/11/09 17:32:54;;;;;;;41.42;31.83;;;;;;;;;;10250162;28;20479;-67
2022/11/09 17:38:10;;;;;;;42.58;30.45;;;;;;;;;;10236641;28;20045;-66
2022/11/09 17:43:30;;;;;;;43.15;31.95;;;;;;;;;;10270267;28;20069;-66
2022/11/09 17:48:47;;;;;;;38.60;30.75;;;;;;;;;;10271524;28;20073;-66
2022/11/09 17:54:04;;;;;;;50.42;40.45;;;;;;;;;;10262855;28;20084;-67
2022/11/09 17:59:22;;;;;;;69.60;52.80;;;;;;;;;;10250315;28;20049;-66
2022/11/09 18:04:39;;;;;;;67.10;44.13;;;;;;;;;;10271130;28;20093;-66
2022/11/09 18:09:57;;;;;;;51.45;38.60;;;;;;;;;;10279521;28;20084;-66
2022/11/09 18:15:14;;;;;;;86.13;53.10;;;;;;;;;;10277439;28;20077;-66
2022/11/09 18:20:31;;;;;;;57.80;41.22;;;;;;;;;;10278211;28;20045;-66
2022/11/09 18:25:55;;;;;;;64.85;43.38;;;;;;;;;;10272561;28;20080;-67
2022/11/09 18:31:13;;;;;;;52.83;41.45;;;;;;;;;;10279714;28;20073;-67
2022/11/09 18:36:30;;;;;;;70.53;49.33;;;;;;;;;;10280460;28;20088;-66
2022/11/09 18:41:47;;;;;;;41.53;33.50;;;;;;;;;;10282727;28;20069;-66
2022/11/09 18:47:07;;;;;;;33.53;24.52;;;;;;;;;;10276809;28;20494;-66
2022/11/09 18:52:23;;;;;;;27.50;22.70;;;;;;;;;;10279979;28;20077;-66
2022/11/09 18:57:40;;;;;;;23.92;19.60;;;;;;;;;;10278802;28;20068;-67
2022/11/09 19:02:58;;;;;;;27.67;22.88;;;;;;;;;;10275578;28;20072;-65
2022/11/09 19:08:15;;;;;;;27.92;20.52;;;;;;;;;;10278199;28;20073;-65
2022/11/09 19:13:32;;;;;;;35.90;23.50;;;;;;;;;;10278658;28;20077;-66
2022/11/09 19:18:50;;;;;;;21.55;18.48;;;;;;;;;;10269805;28;20077;-67
2022/11/09 19:24:07;;;;;;;27.00;21.85;;;;;;;;;;10287866;28;20506;-66
2022/11/09 19:29:24;;;;;;;28.98;25.00;;;;;;;;;;10285624;28;20068;-67
2022/11/09 19:34:42;;;;;;;20.00;13.48;;;;;;;;;;10277453;28;20526;-66
2022/11/09 19:39:59;;;;;;;17.65;14.23;;;;;;;;;;10285608;28;20068;-66
2022/11/09 19:45:16;;;;;;;14.70;13.20;;;;;;;;;;10280561;28;20080;-67
2022/11/09 19:50:34;;;;;;;20.10;14.80;;;;;;;;;;10275189;28;20076;-66
2022/11/09 19:55:51;;;;;;;20.48;14.40;;;;;;;;;;10282098;28;20073;-66
2022/11/09 20:01:08;;;;;;;17.10;13.45;;;;;;;;;;10280011;28;20068;-66
2022/11/09 20:06:27;;;;;;;16.77;14.68;;;;;;;;;;10265365;28;20486;-66
2022/11/09 20:17:18;;;;;;;15.57;13.55;;;;;;;;;;10273317;28;20113;-66
2022/11/09 20:22:36;;;;;;;17.63;10.93;;;;;;;;;;10277042;28;20486;-66
2022/11/09 20:27:53;;;;;;;13.88;11.82;;;;;;;;;;10272301;28;20451;-66
2022/11/09 20:33:09;;;;;;;16.95;13.95;;;;;;;;;;10272572;28;20085;-67
2022/11/09 20:38:28;;;;;;;25.98;19.13;;;;;;;;;;10268864;28;20076;-66
2022/11/09 20:43:44;;;;;;;43.75;34.38;;;;;;;;;;10267819;28;20513;-66
2022/11/09 20:49:02;;;;;;;28.83;23.85;;;;;;;;;;10271133;28;20522;-67
2022/11/09 20:54:21;;;;;;;19.60;17.40;;;;;;;;;;10279027;28;20439;-65
2022/11/09 20:59:37;;;;;;;24.45;18.25;;;;;;;;;;10282093;28;20072;-66
2022/11/09 21:04:54;;;;;;;26.17;19.90;;;;;;;;;;10283906;28;20173;-67
2022/11/09 21:10:12;;;;;;;23.30;16.63;;;;;;;;;;10282550;28;20518;-66
2022/11/09 21:15:29;;;;;;;22.23;15.38;;;;;;;;;;10280508;28;20084;-66
2022/11/09 21:20:46;;;;;;;13.85;12.32;;;;;;;;;;10279093;28;20076;-65
2022/11/09 21:31:38;;;;;;;24.02;17.45;;;;;;;;;;10253855;28;20053;-66
2022/11/09 21:36:55;;;;;;;18.70;15.38;;;;;;;;;;10264651;28;20080;-66
2022/11/09 21:42:13;;;;;;;17.25;13.80;;;;;;;;;;10273514;28;20071;-65
2022/11/09 21:47:29;;;;;;;22.95;16.02;;;;;;;;;;10275140;28;20080;-65
2022/11/09 21:52:46;;;;;;;16.75;14.07;;;;;;;;;;10262151;28;20049;-66
2022/11/09 21:58:04;;;;;;;13.73;11.70;;;;;;;;;;10240726;28;20073;-67
2022/11/09 22:03:21;;;;;;;17.95;14.45;;;;;;;;;;10269252;28;20080;-66
2022/11/09 22:08:38;;;;;;;24.83;19.05;;;;;;;;;;10272281;28;20053;-65
2022/11/09 22:25:10;;;;;;;19.38;16.05;;;;;;;;;;10241346;28;20522;-67
2022/11/09 22:30:28;;;;;;;18.23;14.93;;;;;;;;;;10267138;28;20081;-67
2022/11/09 22:35:52;;;;;;;13.48;12.15;;;;;;;;;;10250716;28;20085;-66
2022/11/09 22:41:10;;;;;;;15.40;12.68;;;;;;;;;;10241038;28;20072;-65
2022/11/09 22:46:28;;;;;;;19.98;14.48;;;;;;;;;;10259233;28;20522;-66
2022/11/09 22:51:44;;;;;;;16.17;11.95;;;;;;;;;;10274119;28;20080;-66
2022/11/09 22:57:01;;;;;;;14.27;12.32;;;;;;;;;;10273024;28;20080;-67
2022/11/09 23:02:19;;;;;;;14.27;11.75;;;;;;;;;;10252980;28;20041;-67
2022/11/09 23:07:36;;;;;;;13.43;11.10;;;;;;;;;;10246031;28;20057;-66
2022/11/09 23:12:53;;;;;;;17.52;11.65;;;;;;;;;;10272906;28;20069;-66
2022/11/09 23:23:45;;;;;;;13.85;11.73;;;;;;;;;;10260816;28;20053;-65
2022/11/09 23:29:02;;;;;;;14.43;11.77;;;;;;;;;;10251267;28;20471;-65
2022/11/09 23:34:20;;;;;;;13.13;11.73;;;;;;;;;;10282195;28;20077;-66
2022/11/09 23:39:37;;;;;;;17.80;12.52;;;;;;;;;;10277016;28;20076;-65
2022/11/09 23:44:54;;;;;;;13.32;10.55;;;;;;;;;;10272974;28;20058;-65
2022/11/09 23:50:12;;;;;;;13.40;11.57;;;;;;;;;;10258897;28;20069;-66
2022/11/09 23:55:29;;;;;;;13.95;11.07;;;;;;;;;;10254939;28;20088;-65
